Time;durP1;ratioP1;P1;durP2;ratioP2;P2;SDS_P1;SDS_P2;PMS_P1;PMS_P2;Temp;Humidity;BMP_temperature;BMP_pressure;BME280_temperature;BME280_humidity;BME280_pressure;Samples;Min_cycle;Max_cycle;Signal;HPM_P1;HPM_P2
2022/06/05 00:03:18;;;;;;;2.65;2.45;;;19.80;38.10;;;17.84;41.21;101816.81;12246879;19;20022;-82
2022/06/05 00:07:43;;;;;;;;;;;19.70;38.20;;;17.67;40.40;101795.00;12249429;19;20014;-83
2022/06/05 00:12:10;;;;;;;2.53;2.33;;;19.60;37.50;;;17.52;41.23;101789.91;12246613;19;19942;-82
2022/06/05 00:16:14;;;;;;;2.30;1.88;;;19.60;38.30;;;17.58;41.26;101808.84;12247106;19;20026;-83
2022/06/05 00:20:17;;;;;;;2.45;2.25;;;19.50;38.20;;;17.48;41.26;101799.84;12244473;19;20443;-83
2022/06/05 00:24:18;;;;;;;2.28;2.10;;;19.40;38.30;;;17.38;41.36;101793.50;12236189;19;20580;-83
2022/06/05 00:28:35;;;;;;;2.67;2.47;;;19.30;38.40;;;17.37;41.57;101803.22;12244678;19;20018;-83
2022/06/05 00:32:54;;;;;;;2.28;2.08;;;19.20;38.50;;;17.14;41.77;101775.69;12244871;19;20084;-83
2022/06/05 00:37:02;;;;;;;2.47;2.13;;;19.20;38.50;;;17.27;41.54;101806.56;12244179;19;20014;-82
2022/06/05 00:41:45;;;;;;;2.40;2.20;;;19.10;38.50;;;17.20;41.79;101808.75;12240416;19;20018;-83
2022/06/05 00:45:47;;;;;;;2.40;2.20;;;19.10;38.70;;;17.07;41.91;101811.38;12242428;19;20558;-83
2022/06/05 00:49:58;;;;;;;2.83;1.95;;;19.00;38.70;;;16.91;42.27;101784.28;12245507;19;20015;-82
2022/06/05 00:54:00;;;;;;;2.15;1.92;;;18.90;38.80;;;17.01;42.02;101812.63;12241589;19;20018;-82
2022/06/05 00:58:02;;;;;;;2.25;2.10;;;18.80;38.90;;;16.97;42.07;101810.25;12242359;19;20029;-83
2022/06/05 01:02:06;;;;;;;2.47;2.28;;;19.20;39.10;;;16.76;42.21;101784.28;12241708;19;20019;-83
2022/06/05 01:06:07;;;;;;;3.15;2.42;;;18.80;39.00;;;16.79;42.32;101799.94;12243607;19;20022;-83
2022/06/05 01:10:11;;;;;;;2.60;2.17;;;18.80;39.00;;;16.70;42.31;101818.13;12238709;19;20026;-83
2022/06/05 01:14:36;;;;;;;2.58;2.38;;;18.70;39.00;;;16.70;42.53;101810.22;12240562;19;20041;-82
2022/06/05 01:19:11;;;;;;;2.40;2.22;;;18.70;39.10;;;16.71;42.38;101815.38;12240017;19;20046;-82
2022/06/05 01:23:27;;;;;;;2.63;2.30;;;18.20;39.00;;;16.48;42.46;101798.38;12240887;19;20015;-83
2022/06/05 01:27:34;;;;;;;2.33;2.13;;;18.50;39.20;;;16.45;42.42;101805.66;12242531;19;20029;-82
2022/06/05 01:31:48;;;;;;;2.67;2.50;;;18.50;39.30;;;16.34;43.08;101790.50;12239253;19;20021;-82
2022/06/05 01:36:12;;;;;;;2.08;1.98;;;18.40;39.90;;;16.32;42.83;101792.38;12241087;19;20047;-82
2022/06/05 01:40:30;;;;;;;3.08;2.42;;;18.40;39.70;;;16.24;42.99;101784.09;12240446;19;20026;-83
2022/06/05 01:44:48;;;;;;;2.58;2.05;;;18.30;39.60;;;16.17;43.04;101782.78;12239656;19;20013;-83
2022/06/05 01:49:21;;;;;;;2.58;2.38;;;18.30;39.50;;;16.13;42.94;101784.75;12240362;19;20078;-82
2022/06/05 01:53:32;;;;;;;3.50;2.33;;;18.20;39.70;;;16.10;43.23;101783.16;12239368;19;20019;-82
2022/06/05 01:57:35;;;;;;;2.58;2.28;;;18.10;39.70;;;16.11;43.08;101794.53;12238443;19;20033;-82
2022/06/05 02:01:43;;;;;;;2.85;2.60;;;18.50;39.90;;;15.99;43.10;101774.22;12234808;19;20029;-82
2022/06/05 02:05:52;;;;;;;3.13;2.65;;;18.00;39.70;;;16.04;43.14;101793.22;12236804;19;20499;-83
2022/06/05 02:10:03;;;;;;;3.28;2.78;;;18.00;39.60;;;15.83;43.21;101767.25;12239909;19;20006;-82
2022/06/05 02:14:09;;;;;;;3.30;2.35;;;17.90;39.70;;;15.69;43.37;101767.25;12239100;19;20403;-83
2022/06/05 02:18:13;;;;;;;3.20;2.78;;;17.80;39.70;;;15.55;43.31;101759.28;12236412;19;20022;-82
2022/06/05 02:22:23;;;;;;;2.65;2.45;;;17.70;39.70;;;15.61;43.57;101785.25;12238683;19;20460;-82
2022/06/05 02:26:27;;;;;;;3.22;2.53;;;17.60;40.00;;;15.42;43.55;101760.03;12238743;19;20127;-83
2022/06/05 02:31:03;;;;;;;2.85;2.55;;;17.70;40.20;;;15.45;43.77;101767.72;12241808;19;20016;-83
2022/06/05 02:35:36;;;;;;;2.67;2.47;;;17.50;40.30;;;15.44;43.87;101775.69;12234300;19;20007;-82
2022/06/05 02:40:36;;;;;;;2.60;2.40;;;17.40;40.30;;;15.38;43.73;101776.91;12236935;19;20031;-83
2022/06/05 02:44:52;;;;;;;3.33;2.60;;;17.30;40.40;;;15.18;44.04;101749.13;12237460;19;20011;-82
2022/06/05 02:49:13;;;;;;;3.10;2.63;;;17.30;40.40;;;15.14;43.97;101752.03;12233638;19;20015;-83
2022/06/05 02:53:15;;;;;;;3.50;2.08;;;17.20;40.40;;;15.10;43.93;101743.47;12236381;19;20405;-82
2022/06/05 02:57:17;;;;;;;2.53;2.25;;;17.20;40.30;;;15.08;43.90;101741.88;12236020;19;20092;-83
2022/06/05 03:05:40;;;;;;;3.00;2.70;;;17.10;40.50;;;15.03;44.08;101756.13;12230003;19;20005;-83
2022/06/05 03:09:42;;;;;;;3.38;2.42;;;17.00;40.50;;;14.84;44.08;101731.81;12236303;19;20074;-83
2022/06/05 03:13:43;;;;;;;2.90;2.55;;;17.00;40.60;;;15.03;44.17;101761.38;12233114;19;20067;-82
2022/06/05 03:17:46;;;;;;;3.60;3.30;;;17.20;40.70;;;14.90;44.40;101736.72;12235142;19;20019;-83
2022/06/05 03:21:48;;;;;;;3.60;2.55;;;16.90;40.60;;;14.90;44.38;101756.91;12234644;19;20014;-83
2022/06/05 03:25:49;;;;;;;2.58;2.38;;;17.00;40.70;;;14.73;44.41;101729.78;12247828;19;20020;-83
2022/06/05 03:29:51;;;;;;;3.20;2.60;;;16.80;40.70;;;14.72;44.40;101740.41;12247822;19;20018;-83
2022/06/05 03:33:53;;;;;;;4.82;2.63;;;16.90;40.80;;;14.82;44.50;101770.50;12243453;19;20010;-82
2022/06/05 03:37:55;;;;;;;3.22;2.75;;;17.10;41.00;;;14.62;44.61;101744.47;12245489;19;20022;-83
2022/06/05 03:41:56;;;;;;;3.13;2.55;;;16.80;40.90;;;14.57;44.61;101740.31;12240875;19;20018;-82
2022/06/05 03:46:05;;;;;;;3.60;2.63;;;17.00;41.00;;;14.70;44.87;101776.44;12246370;19;20351;-83
2022/06/05 03:50:08;;;;;;;3.65;3.35;;;16.70;40.90;;;14.51;44.71;101761.66;12239409;19;20101;-83
2022/06/05 03:54:10;;;;;;;3.17;2.90;;;16.70;40.90;;;14.57;44.77;101769.22;12238007;19;20014;-83
2022/06/05 03:58:12;;;;;;;3.17;2.78;;;17.10;41.20;;;14.53;44.77;101754.56;12244691;19;20026;-83
2022/06/05 04:02:13;;;;;;;3.30;2.72;;;16.60;41.10;;;14.58;44.83;101764.81;12246201;19;20093;-82
2022/06/05 04:06:20;;;;;;;3.92;3.08;;;17.00;41.20;;;14.38;45.03;101761.47;12237361;19;20018;-83
2022/06/05 04:10:22;;;;;;;3.33;3.00;;;16.60;41.10;;;14.15;45.09;101733.84;12247986;19;20089;-83
2022/06/05 04:14:23;;;;;;;6.20;3.13;;;17.00;41.30;;;14.31;45.11;101748.75;12244322;19;20019;-83
2022/06/05 04:18:25;;;;;;;5.50;3.08;;;16.50;41.30;;;14.19;45.20;101736.28;12240660;19;20010;-82
2022/06/05 04:22:27;;;;;;;4.32;3.08;;;16.20;41.30;;;14.08;45.31;101729.84;12234465;19;20049;-82
2022/06/05 04:26:33;;;;;;;3.30;2.85;;;16.40;42.10;;;14.14;45.61;101737.38;12240042;19;20666;-82
2022/06/05 04:30:36;;;;;;;3.13;2.60;;;16.40;42.00;;;14.31;45.62;101767.13;12240953;19;20413;-82
2022/06/05 04:34:38;;;;;;;4.50;3.28;;;16.30;42.10;;;13.97;45.78;101710.34;12238130;19;20466;-82
2022/06/05 04:38:41;;;;;;;4.35;2.95;;;16.70;42.50;;;14.27;45.83;101763.00;12238780;19;20025;-82
2022/06/05 04:42:42;;;;;;;4.40;2.70;;;16.40;42.70;;;14.30;45.99;101747.06;12239326;19;20018;-82
2022/06/05 04:46:45;;;;;;;4.00;3.05;;;16.40;42.90;;;14.04;46.43;101703.81;12242003;19;20489;-80
2022/06/05 04:50:47;;;;;;;3.25;2.95;;;16.60;43.40;;;14.35;46.48;101745.03;12241060;19;20496;-81
2022/06/05 04:54:48;;;;;;;3.17;2.80;;;16.80;43.70;;;14.45;46.51;101730.47;12240651;19;20600;-80
2022/06/05 04:58:50;;;;;;;4.55;2.72;;;16.60;43.80;;;14.59;46.72;101717.44;12240281;19;20036;-79
2022/06/05 05:02:52;;;;;;;3.72;2.97;;;16.70;44.20;;;14.75;46.83;101719.19;12241841;19;20002;-81
2022/06/05 05:06:54;;;;;;;3.35;3.05;;;16.70;44.10;;;14.88;46.92;101717.56;12239632;19;20468;-82
2022/06/05 05:10:56;;;;;;;3.05;2.75;;;16.80;44.40;;;14.91;46.88;101693.72;12239088;19;20017;-83
2022/06/05 05:14:58;;;;;;;3.40;3.10;;;16.90;44.30;;;15.14;46.87;101712.56;12239198;19;20019;-82
2022/06/05 05:19:00;;;;;;;4.28;3.30;;;17.00;44.20;;;15.27;46.83;101718.81;12237549;19;20018;-83
2022/06/05 05:23:01;;;;;;;4.88;3.42;;;17.50;44.20;;;15.42;46.93;101728.44;12239892;19;20098;-82
2022/06/05 05:27:03;;;;;;;4.63;3.70;;;17.30;44.10;;;15.58;46.88;101738.91;12238472;19;20081;-82
2022/06/05 05:31:26;;;;;;;3.28;2.97;;;17.40;44.20;;;15.76;47.21;101723.78;12241338;19;20018;-82
2022/06/05 05:35:28;;;;;;;3.17;2.75;;;17.60;44.60;;;15.89;46.90;101711.56;12235055;19;20046;-82
2022/06/05 05:43:51;;;;;;;3.58;3.10;;;18.10;44.50;;;16.37;46.77;101704.16;12234950;19;20018;-82
2022/06/05 05:47:52;;;;;;;4.18;2.95;;;18.30;44.40;;;16.59;46.86;101695.69;12239605;19;20026;-82
2022/06/05 05:51:54;;;;;;;3.53;3.22;;;18.30;44.20;;;16.86;46.85;101699.31;12238878;19;20413;-82
2022/06/05 05:55:56;;;;;;;4.13;3.30;;;18.50;44.30;;;16.74;46.67;101634.97;12237593;19;20088;-83
2022/06/05 05:59:57;;;;;;;3.70;3.35;;;19.00;44.30;;;17.33;46.72;101679.41;12237937;19;20782;-81
2022/06/05 06:03:59;;;;;;;4.00;3.38;;;18.90;44.00;;;17.48;46.61;101673.94;12235079;19;20030;-82
2022/06/05 06:08:01;;;;;;;5.57;3.25;;;19.20;43.90;;;17.73;46.59;101679.31;12237104;19;20014;-81
2022/06/05 06:12:03;;;;;;;5.22;3.38;;;19.40;43.80;;;18.06;46.58;101686.66;12237054;19;20011;-82
2022/06/05 06:16:05;;;;;;;5.10;3.42;;;19.60;43.80;;;18.24;46.41;101679.22;12241529;19;20031;-82
2022/06/05 06:20:07;;;;;;;4.00;3.60;;;19.80;43.50;;;18.62;46.43;101696.72;12238304;19;20014;-82
2022/06/05 06:24:13;;;;;;;3.50;3.15;;;20.10;43.60;;;18.57;46.21;101652.94;12237237;19;20011;-82
2022/06/05 06:28:15;;;;;;;4.03;3.45;;;20.30;43.30;;;18.89;46.04;101665.59;12234003;19;20027;-82
2022/06/05 06:32:18;;;;;;;5.18;3.63;;;20.50;43.10;;;18.89;45.78;101647.06;12239029;19;20022;-81
2022/06/05 06:36:19;;;;;;;3.53;3.20;;;20.70;42.90;;;19.10;46.02;101670.25;12235685;19;20019;-81
2022/06/05 06:40:21;;;;;;;4.90;3.65;;;21.10;42.80;;;19.46;46.01;101704.47;12236952;19;20026;-80
2022/06/05 06:44:23;;;;;;;3.47;3.17;;;21.40;42.80;;;19.45;45.77;101657.75;12233369;19;20011;-81
2022/06/05 06:48:26;;;;;;;3.75;3.45;;;21.30;42.60;;;19.73;45.91;101690.06;12237232;19;20021;-81
2022/06/05 06:52:28;;;;;;;4.60;3.55;;;21.40;42.40;;;19.93;45.74;101700.91;12236963;19;20360;-82
2022/06/05 06:56:32;;;;;;;6.70;3.67;;;21.80;42.70;;;19.90;45.66;101672.81;12242075;19;20344;-80
2022/06/05 07:00:34;;;;;;;4.65;3.55;;;21.70;42.20;;;20.04;45.72;101666.44;12243295;19;20011;-80
2022/06/05 07:04:36;;;;;;;4.45;3.78;;;22.20;42.10;;;20.16;45.66;101661.97;12245061;19;20101;-79
2022/06/05 07:08:40;;;;;;;5.07;3.50;;;21.90;41.90;;;20.14;45.42;101634.72;12246358;19;20031;-80
2022/06/05 07:12:42;;;;;;;5.43;3.53;;;22.00;41.80;;;20.41;45.35;101668.75;12246665;19;20400;-80
2022/06/05 07:16:44;;;;;;;4.10;3.70;;;22.20;41.80;;;20.53;45.46;101658.00;12247806;19;20014;-81
2022/06/05 07:20:47;;;;;;;4.05;3.65;;;22.30;41.80;;;20.60;45.55;101638.91;12245763;19;20453;-81
2022/06/05 07:24:48;;;;;;;4.35;3.95;;;22.40;41.70;;;20.94;45.22;101676.78;12242246;19;20476;-80
2022/06/05 07:28:50;;;;;;;4.80;3.30;;;22.60;41.70;;;21.09;45.27;101661.34;12248445;19;20044;-82
2022/06/05 07:32:53;;;;;;;3.58;3.28;;;22.70;41.60;;;21.29;44.93;101654.34;12246520;19;20013;-86
2022/06/05 07:36:54;;;;;;;3.72;3.42;;;22.90;41.60;;;21.42;44.82;101629.28;12242380;19;20014;-83
2022/06/05 07:40:56;;;;;;;4.25;3.15;;;23.00;41.20;;;21.50;44.65;101607.34;12226339;19;20372;-83
2022/06/05 07:44:58;;;;;;;3.70;3.40;;;23.50;41.40;;;21.79;44.25;101634.03;12231994;19;20086;-84
2022/06/05 07:48:59;;;;;;;4.18;3.78;;;23.40;41.00;;;21.93;44.49;101635.47;12237059;19;20394;-84
2022/06/05 07:57:21;;;;;;;4.45;3.75;;;23.70;40.60;;;22.20;44.13;101610.91;12232567;19;20022;-82
2022/06/05 08:01:23;;;;;;;3.60;3.28;;;23.80;40.40;;;22.42;44.17;101612.44;12225629;19;20092;-83
2022/06/05 08:05:25;;;;;;;4.03;3.72;;;24.00;40.60;;;22.65;43.89;101623.63;12228764;19;20078;-83
2022/06/05 08:09:28;;;;;;;3.72;3.42;;;24.20;40.30;;;22.78;43.46;101617.19;12230156;19;20086;-84
2022/06/05 08:13:30;;;;;;;4.03;3.58;;;24.40;39.90;;;22.90;43.76;101594.72;12238097;19;20014;-82
2022/06/05 08:17:32;;;;;;;3.72;3.42;;;24.50;40.00;;;23.25;43.21;101611.88;12238993;19;20368;-83
2022/06/05 08:21:33;;;;;;;3.10;2.90;;;24.70;39.70;;;23.18;43.11;101585.81;12238702;19;20054;-83
2022/06/05 08:25:35;;;;;;;4.45;2.90;;;24.90;39.60;;;23.37;42.98;101587.56;12237127;19;20048;-83
2022/06/05 08:29:38;;;;;;;3.60;3.30;;;25.10;39.60;;;23.73;43.10;101611.69;12238861;19;20014;-84
2022/06/05 08:33:41;;;;;;;3.50;3.20;;;25.20;39.50;;;23.82;42.65;101575.31;12236600;19;20483;-83
2022/06/05 08:42:46;;;;;;;3.55;3.25;;;25.60;39.20;;;24.39;42.33;101573.16;12237570;19;20018;-83
2022/06/05 08:47:01;;;;;;;3.00;2.80;;;25.80;38.80;;;24.57;41.88;101577.66;12236848;19;20412;-83
2022/06/05 08:51:41;;;;;;;3.75;2.97;;;26.00;38.80;;;24.86;41.94;101569.34;12080332;19;3085215;-83
2022/06/05 08:55:46;;;;;;;3.13;2.90;;;26.30;38.60;;;25.08;41.86;101578.66;12237030;19;20014;-83
2022/06/05 09:00:16;;;;;;;3.05;2.80;;;26.50;38.30;;;25.20;41.42;101568.59;12241668;19;20015;-83
2022/06/05 09:05:00;;;;;;;3.17;2.67;;;26.70;37.70;;;25.37;41.53;101554.28;12237760;19;20089;-83
2022/06/05 09:09:10;;;;;;;2.63;2.42;;;26.90;37.90;;;25.57;40.91;101566.38;12240496;19;20022;-83
2022/06/05 09:13:38;;;;;;;3.45;2.92;;;27.00;37.50;;;25.45;40.59;101505.31;12238821;19;20018;-83
2022/06/05 09:17:52;;;;;;;3.17;2.88;;;27.20;37.20;;;25.63;40.26;101529.25;12237872;19;20658;-83
2022/06/05 09:22:04;;;;;;;3.10;2.88;;;27.30;37.00;;;25.93;40.20;101552.78;12232878;19;20010;-83
2022/06/05 09:26:09;;;;;;;3.30;3.10;;;27.40;36.80;;;26.09;40.00;101559.16;12241142;19;20011;-83
2022/06/05 09:30:36;;;;;;;3.33;2.70;;;27.60;37.10;;;26.12;39.97;101519.50;12239941;19;20014;-83
2022/06/05 09:34:51;;;;;;;3.22;2.92;;;27.70;37.10;;;26.44;39.76;101555.31;12239242;19;20518;-83
2022/06/05 09:39:20;;;;;;;3.15;2.95;;;27.80;36.90;;;26.61;39.55;101545.44;12236615;19;20014;-84
2022/06/05 09:43:48;;;;;;;2.78;2.58;;;28.00;36.70;;;26.80;39.33;101545.06;12238632;19;20031;-83
2022/06/05 09:48:39;;;;;;;3.05;2.85;;;28.10;36.70;;;26.94;39.13;101532.78;12238745;19;20035;-84
2022/06/05 09:52:40;;;;;;;3.55;3.25;;;28.30;36.40;;;26.87;39.43;101519.25;12232431;19;20007;-83
2022/06/05 10:01:31;;;;;;;2.97;2.78;;;28.50;36.20;;;27.19;38.77;101525.50;12237837;19;20022;-81
2022/06/05 10:05:37;;;;;;;3.35;3.10;;;28.80;36.20;;;27.21;38.79;101510.09;12234626;19;20037;-83
2022/06/05 10:09:45;;;;;;;3.40;3.10;;;28.70;35.90;;;27.36;38.63;101513.72;12238146;19;20027;-82
2022/06/05 10:14:07;;;;;;;2.97;2.78;;;28.80;36.00;;;27.50;38.33;101522.84;12235785;19;20022;-83
2022/06/05 10:18:40;;;;;;;3.00;2.80;;;29.00;35.80;;;27.48;38.04;101494.53;12238596;19;20018;-82
2022/06/05 10:23:12;;;;;;;2.75;2.55;;;29.00;35.70;;;27.59;38.20;101496.78;12236712;19;20352;-84
2022/06/05 10:27:15;;;;;;;3.38;3.08;;;29.10;35.80;;;27.68;38.26;101490.38;12239646;19;20094;-82
2022/06/05 10:31:20;;;;;;;3.22;3.00;;;29.20;35.90;;;27.82;38.24;101490.66;12233976;19;20022;-82
2022/06/05 10:35:59;;;;;;;3.83;3.53;;;29.40;36.00;;;27.87;37.89;101491.78;12236049;19;20015;-83
2022/06/05 10:40:20;;;;;;;3.83;3.08;;;29.30;35.80;;;27.86;37.81;101473.16;12235802;19;20042;-83
2022/06/05 10:44:53;;;;;;;3.58;3.33;;;29.40;35.60;;;27.98;37.68;101466.34;12237726;19;20015;-83
2022/06/05 10:49:12;;;;;;;3.30;3.00;;;29.40;35.70;;;27.87;37.94;101435.41;12232211;19;20025;-84
2022/06/05 10:53:31;;;;;;;3.33;3.03;;;29.50;35.50;;;28.17;37.38;101456.94;12233172;19;20038;-82
2022/06/05 10:57:38;;;;;;;4.00;3.60;;;29.60;35.50;;;28.03;37.76;101423.69;12237660;19;20030;-83
2022/06/05 11:02:13;;;;;;;3.17;2.97;;;29.70;35.50;;;28.07;37.48;101414.22;12229520;19;20021;-86
2022/06/05 11:07:03;;;;;;;3.38;3.08;;;29.70;35.70;;;28.36;37.73;101434.09;12238350;19;20643;-85
2022/06/05 11:15:57;;;;;;;4.00;3.70;;;29.90;35.80;;;28.55;37.49;101422.81;12237498;19;20086;-84
2022/06/05 11:20:17;;;;;;;3.88;3.50;;;30.00;35.70;;;28.74;37.41;101429.47;12232345;19;20055;-84
2022/06/05 11:24:31;;;;;;;3.38;3.13;;;30.10;35.50;;;28.63;36.79;101387.75;12235917;19;20023;-84
2022/06/05 11:28:52;;;;;;;3.35;3.05;;;30.20;35.20;;;28.82;36.80;101418.59;12235593;19;20018;-84
2022/06/05 11:33:24;;;;;;;3.72;3.42;;;30.30;35.20;;;28.65;36.66;101372.28;12237244;19;20067;-84
2022/06/05 11:38:13;;;;;;;3.90;3.60;;;30.30;34.80;;;28.92;36.69;101401.31;12234550;19;20018;-84
2022/06/05 11:42:34;;;;;;;3.75;3.38;;;30.40;35.00;;;28.90;36.38;101371.94;12235623;19;20015;-84
2022/06/05 11:46:58;;;;;;;3.42;3.13;;;30.40;34.90;;;29.08;36.52;101361.63;12248357;19;20422;-84
2022/06/05 11:51:25;;;;;;;3.33;3.03;;;30.50;35.10;;;29.28;36.26;101350.22;12244799;19;20035;-84
2022/06/05 11:56:04;;;;;;;3.50;3.20;;;30.50;34.80;;;29.28;36.16;101312.56;12245084;19;20018;-84
2022/06/05 12:00:25;;;;;;;3.67;3.38;;;30.70;35.00;;;29.55;36.20;101349.44;12246131;19;20463;-84
2022/06/05 12:05:12;;;;;;;3.58;3.28;;;30.80;34.70;;;29.60;35.98;101334.53;12244403;19;20071;-83
2022/06/05 12:09:21;;;;;;;3.08;2.88;;;30.90;34.40;;;29.66;35.65;101328.44;12244879;19;20010;-83
2022/06/05 12:13:36;;;;;;;3.53;3.22;;;31.00;33.90;;;29.67;35.39;101322.00;12246102;19;20019;-84
2022/06/05 12:17:42;;;;;;;;;;;31.10;33.90;;;29.75;35.99;101313.78;12247042;19;20510;-84
2022/06/05 12:22:02;;;;;;;2.47;2.38;;;31.10;35.20;;;29.68;35.56;101278.75;12242061;19;19930;-84
2022/06/05 12:26:33;;;;;;;3.47;3.17;;;31.20;34.30;;;29.84;35.10;101282.13;12242810;19;20028;-84
2022/06/05 12:30:43;;;;;;;3.85;3.28;;;31.20;34.20;;;29.90;35.07;101281.34;12244793;19;20029;-81
2022/06/05 12:35:09;;;;;;;4.00;3.65;;;31.30;33.80;;;29.94;34.90;101286.13;12239621;19;20436;-85
2022/06/05 12:39:27;;;;;;;5.88;3.03;;;31.50;33.60;;;29.91;34.48;101250.69;12241519;19;20011;-84
2022/06/05 12:44:00;;;;;;;3.15;2.95;;;31.30;33.60;;;30.13;34.84;101278.34;12241629;19;20014;-84
2022/06/05 12:48:26;;;;;;;4.10;3.50;;;31.40;33.70;;;30.11;34.46;101243.53;12242260;19;20021;-84
2022/06/05 12:53:05;;;;;;;3.45;3.10;;;31.50;33.80;;;30.23;34.85;101251.91;12242626;19;20106;-84
2022/06/05 12:57:17;;;;;;;4.03;3.30;;;31.50;34.00;;;30.24;34.19;101241.94;12242928;19;20484;-84
2022/06/05 13:01:26;;;;;;;3.42;3.20;;;31.60;33.30;;;30.23;33.85;101210.66;12242771;19;20030;-85
2022/06/05 13:05:41;;;;;;;3.50;3.20;;;31.70;33.00;;;30.14;34.00;101201.91;12233378;19;20023;-84
2022/06/05 13:09:59;;;;;;;3.57;3.30;;;31.80;33.10;;;30.41;33.68;101214.44;12244026;19;20483;-85
2022/06/05 13:14:40;;;;;;;3.50;3.25;;;31.80;32.80;;;30.52;33.43;101209.50;12241966;19;20025;-84
2022/06/05 13:19:15;;;;;;;2.97;2.78;;;31.90;32.90;;;30.59;33.63;101218.41;12239909;19;20014;-84
2022/06/05 13:23:48;;;;;;;3.50;3.30;;;31.90;33.00;;;30.49;33.51;101199.09;12226040;19;20011;-84
2022/06/05 13:28:35;;;;;;;3.53;3.22;;;32.00;32.90;;;30.56;33.34;101178.38;12238710;19;20033;-84
2022/06/05 13:33:01;;;;;;;3.10;2.90;;;32.00;32.40;;;30.80;33.08;101196.69;12237411;19;20462;-85
2022/06/05 13:37:24;;;;;;;3.15;2.95;;;32.10;32.30;;;30.77;32.90;101163.88;12238658;19;20494;-85
2022/06/05 13:41:42;;;;;;;3.28;2.97;;;32.30;32.30;;;30.93;32.43;101179.66;12237315;19;20110;-84
2022/06/05 13:46:25;;;;;;;3.38;3.13;;;32.20;31.80;;;30.85;32.80;101156.44;12230577;19;20025;-84
2022/06/05 13:50:54;;;;;;;3.47;3.08;;;32.30;32.20;;;31.03;32.61;101169.28;12236077;19;21326;-84
2022/06/05 13:55:05;;;;;;;3.35;3.05;;;32.30;31.90;;;31.03;31.93;101163.06;12233368;19;20090;-84
2022/06/05 13:59:41;;;;;;;3.20;3.00;;;32.40;31.90;;;31.02;32.01;101151.44;12233012;19;20483;-84
2022/06/05 14:03:50;;;;;;;2.97;2.78;;;32.40;31.70;;;30.97;31.78;101134.22;12230469;19;20391;-85
2022/06/05 14:07:52;;;;;;;3.10;2.90;;;32.40;31.70;;;31.00;32.05;101148.13;12232203;19;20025;-84
2022/06/05 14:11:56;;;;;;;3.30;3.10;;;32.40;31.70;;;30.85;31.90;101134.84;12235892;19;20026;-84
2022/06/05 14:16:00;;;;;;;6.20;2.83;;;32.40;31.70;;;30.95;31.80;101149.81;12233114;19;20025;-84
2022/06/05 14:20:16;;;;;;;2.97;2.80;;;32.30;31.80;;;30.92;31.78;101139.41;12232893;19;20018;-85
2022/06/05 14:24:24;;;;;;;3.70;3.13;;;32.30;31.40;;;30.79;31.70;101121.34;12236001;19;20006;-83
2022/06/05 14:28:39;;;;;;;3.60;3.30;;;32.30;31.60;;;30.84;31.76;101144.00;12234127;19;20038;-83
2022/06/05 14:32:46;;;;;;;4.63;3.10;;;32.30;31.50;;;30.85;31.85;101134.84;12238186;19;20373;-83
2022/06/05 14:36:51;;;;;;;3.72;3.03;;;32.30;31.50;;;30.78;31.22;101139.38;12235501;19;20011;-83
2022/06/05 14:41:10;;;;;;;3.17;2.90;;;32.30;31.20;;;30.82;31.23;101137.97;12236917;19;20741;-84
2022/06/05 14:45:47;;;;;;;3.13;2.90;;;32.20;30.90;;;30.80;31.48;101139.19;12233878;19;20037;-83
2022/06/05 14:49:59;;;;;;;3.50;3.20;;;32.20;31.00;;;30.68;31.06;101128.22;12237816;19;20022;-84
2022/06/05 14:59:21;;;;;;;2.78;2.58;;;32.10;31.30;;;30.67;30.89;101126.53;12236723;19;20021;-84
2022/06/05 15:03:45;;;;;;;3.15;2.95;;;32.00;30.90;;;30.58;31.02;101112.44;12233576;19;20010;-83
2022/06/05 15:07:58;;;;;;;2.50;2.35;;;32.00;31.00;;;30.65;31.21;101115.97;12235874;19;20036;-83
2022/06/05 15:12:24;;;;;;;2.67;2.58;;;32.00;31.20;;;30.69;31.06;101093.97;12236113;19;20018;-84
2022/06/05 15:16:58;;;;;;;3.00;2.80;;;32.10;31.60;;;30.75;30.86;101082.34;12238787;19;20018;-84
2022/06/05 15:21:24;;;;;;;2.70;2.50;;;32.10;30.90;;;30.90;30.49;101085.69;12243531;19;20022;-84
2022/06/05 15:25:37;;;;;;;2.70;2.50;;;32.10;30.70;;;30.92;30.50;101085.47;12244805;19;20018;-83
2022/06/05 15:30:03;;;;;;;3.05;2.80;;;32.20;30.80;;;30.84;30.46;101063.09;12247048;19;20010;-84
2022/06/05 15:34:30;;;;;;;2.72;2.53;;;32.30;30.80;;;30.97;30.55;101074.88;12245213;19;20032;-84
2022/06/05 15:38:55;;;;;;;3.95;2.28;;;32.30;30.90;;;30.84;30.58;101046.06;12243941;19;20382;-83
2022/06/05 15:43:00;;;;;;;2.65;2.47;;;32.20;31.00;;;30.90;30.76;101055.19;12246709;19;20366;-83
2022/06/05 15:47:25;;;;;;;;;;;32.30;30.80;;;30.79;30.96;101017.00;12233278;19;20018;-84
2022/06/05 15:51:54;;;;;;;2.10;2.00;;;32.20;31.70;;;30.71;30.65;101006.44;12248216;19;19918;-83
2022/06/05 15:56:44;;;;;;;2.85;2.65;;;32.20;30.90;;;30.69;30.58;101022.00;12245078;19;20015;-84
2022/06/05 16:01:33;;;;;;;2.75;2.55;;;32.20;30.90;;;30.50;30.57;101006.69;12246226;19;20077;-83
2022/06/05 16:05:49;;;;;;;2.42;2.33;;;32.00;30.90;;;30.56;30.71;101030.09;12240144;19;20014;-84
2022/06/05 16:10:01;;;;;;;2.65;2.45;;;32.00;30.90;;;30.57;30.69;101035.28;12247392;19;20356;-83
2022/06/05 16:14:41;;;;;;;2.92;2.72;;;31.90;30.90;;;30.59;30.86;101025.09;12242495;19;20010;-83
2022/06/05 16:18:59;;;;;;;2.72;2.53;;;31.90;30.80;;;30.65;30.30;101023.47;12245339;19;20006;-83
2022/06/05 16:23:19;;;;;;;3.05;2.58;;;32.20;31.10;;;30.68;30.43;101031.13;12246032;19;20464;-83
2022/06/05 16:27:31;;;;;;;2.40;2.30;;;32.00;31.00;;;30.68;30.16;101031.13;12247850;19;20031;-83
2022/06/05 16:31:49;;;;;;;2.78;2.60;;;32.00;30.90;;;30.70;30.47;101029.03;12245388;19;20022;-83
2022/06/05 16:40:34;;;;;;;2.60;2.40;;;32.00;30.50;;;30.56;29.97;101013.94;12237270;19;20015;-82
2022/06/05 16:44:45;;;;;;;2.55;2.35;;;31.90;30.60;;;30.54;30.26;101007.91;12232599;19;20014;-83
2022/06/05 16:48:55;;;;;;;6.78;2.80;;;31.90;30.60;;;30.17;29.92;100942.84;12231327;19;20061;-84
2022/06/05 16:53:16;;;;;;;2.75;2.55;;;31.90;30.50;;;30.59;30.12;101024.28;12242893;19;20035;-84
2022/06/05 16:57:19;;;;;;;2.78;2.58;;;31.90;30.60;;;30.48;30.03;101003.38;12238554;19;20605;-83
2022/06/05 17:01:41;;;;;;;2.63;2.53;;;31.90;30.20;;;30.46;29.71;101013.53;12216555;19;20102;-85
2022/06/05 17:05:43;;;;;;;2.72;2.50;;;31.80;30.40;;;30.37;30.09;101016.44;12223841;19;20373;-85
2022/06/05 17:09:44;;;;;;;2.75;2.47;;;31.80;30.50;;;30.13;30.22;100984.69;12229143;19;20495;-84
2022/06/05 17:13:46;;;;;;;3.60;2.70;;;31.70;30.50;;;30.21;30.43;100990.69;12227104;19;20417;-84
2022/06/05 17:18:13;;;;;;;3.05;2.75;;;31.70;30.80;;;30.17;30.35;100983.25;12225485;19;20019;-84
2022/06/05 17:22:34;;;;;;;2.50;2.30;;;31.60;30.80;;;30.17;30.35;101000.25;12219636;19;20033;-85
2022/06/05 17:27:08;;;;;;;2.97;2.72;;;31.60;30.90;;;30.10;30.77;101007.50;12226269;19;20022;-85
2022/06/05 17:31:46;;;;;;;2.90;2.60;;;31.50;31.10;;;30.05;30.33;100999.19;12229619;19;20148;-84
2022/06/05 17:35:55;;;;;;;2.55;2.38;;;31.50;31.10;;;29.86;30.36;100979.28;12229625;19;20022;-83
2022/06/05 17:40:40;;;;;;;3.78;2.88;;;31.40;31.40;;;29.67;30.29;100966.63;12224739;19;20349;-83
2022/06/05 17:45:02;;;;;;;2.42;2.22;;;31.30;31.10;;;29.59;30.82;100974.88;12226393;19;20392;-83
2022/06/05 17:49:53;;;;;;;2.70;2.50;;;31.20;31.10;;;29.33;31.17;100958.47;12225108;19;20018;-83
2022/06/05 17:53:55;;;;;;;7.32;3.33;;;31.00;31.20;;;29.29;31.18;100959.06;12225618;19;20017;-83
2022/06/05 17:58:11;;;;;;;2.80;2.60;;;31.00;31.40;;;29.32;31.04;100972.94;12226746;19;20034;-83
2022/06/05 18:02:24;;;;;;;2.55;2.28;;;30.80;31.50;;;29.20;31.03;100974.56;12225822;19;20026;-83
2022/06/05 18:06:40;;;;;;;4.25;2.35;;;30.70;31.40;;;29.03;31.22;100957.06;12224247;19;20019;-82